Latest Weather Observations for Cessnock Airport

IDN60801

Issued at 10:03 pm EDT Tuesday 24 January 2017 (issued every 30 minutes, with the page automatically refreshed every 10 minutes)

About weather observations | Map of weather stations | Latest weather observations for NSW | Other Formats
Station Details ID: 061260 Name: CESSNOCK AIRPORT AWS Lat: -32.79 Lon: 151.34 Height: 61.0 m
Data from the previous 72 hours. | See also: Recent months at Cessnock Airport
Date/Time
EDT
Temp
°C
App
Temp
°C
Dew
Point
°C
Rel
Hum
%
Delta-T
°C
Wind Press
QNH
hPa
Press
MSL
hPa
Rain since
9am
mm
Dir  Spd
km/h
Gust
km/h
Spd
kts
Gust
kts
24/10:00pm 23.8 24.3 20.9 84 1.9 S 19 28 10 15 1015.9 1015.6 3.8
24/09:30pm 24.3 24.9 21.4 84 1.9 SSE 20 26 11 14 1015.1 1014.8 3.8
24/09:00pm 24.6 25.9 21.7 84 1.9 SSE 17 24 9 13 1014.4 1014.1 3.8
24/08:30pm 24.7 25.1 21.8 84 1.9 SSE 22 35 12 19 1013.7 1013.4 3.8
24/08:00pm 25.0 24.1 22.1 84 1.9 SSE 30 52 16 28 1012.8 1012.5 3.8
24/07:57pm 25.0 24.5 22.1 84 1.9 SSE 28 48 15 26 1012.8 1012.5 3.8
24/07:30pm 25.7 25.3 22.4 82 2.2 SSE 28 37 15 20 1011.9 1011.6 3.8
24/07:00pm 27.9 30.6 23.5 77 3.0 SSE 15 32 8 17 1010.1 1009.8 3.8
24/06:30pm 27.6 28.3 21.6 70 4.0 S 20 39 11 21 1009.7 1009.4 0.8
24/06:00pm 32.3 31.6 20.2 48 8.1 SSE 24 33 13 18 1008.3 1008.0 0.0
24/05:45pm 32.7 31.2 20.2 47 8.3 SE 28 46 15 25 1008.0 1007.7 0.0
24/05:38pm 33.1 32.1 19.6 45 8.9 SE 24 44 13 24 1007.9 1007.6 0.0
24/05:30pm 35.2 36.3 19.6 40 10.4 SE 13 19 7 10 1007.6 1007.3 0.0
24/05:00pm 38.5 38.8 17.8 29 13.6 WNW 13 19 7 10 1007.2 1006.9 0.0
24/04:30pm 39.3 39.6 18.0 29 14.0 W 13 20 7 11 1007.1 1006.8 0.0
24/04:00pm 39.2 41.2 17.9 28 14.0 NNW 4 9 2 5 1007.0 1006.7 0.0
24/03:30pm 37.4 38.6 17.4 30 13.0 NW 7 17 4 9 1007.3 1007.0 0.0
24/03:00pm 37.1 36.7 17.1 30 13.0 NW 15 24 8 13 1007.3 1007.0 0.0
24/02:30pm 37.5 35.9 17.5 30 13.0 NW 22 35 12 19 1007.4 1007.1 0.0
24/02:00pm 39.8 38.0 17.8 27 14.5 NW 24 43 13 23 1007.0 1006.7 0.0
24/01:30pm 38.2 36.0 17.0 28 13.7 WNW 24 41 13 22 1006.8 1006.5 0.0
24/01:00pm 39.0 35.8 17.2 28 14.2 NW 30 54 16 29 1007.0 1006.7 0.0
24/12:52pm 39.0 36.2 17.2 28 14.2 NW 28 54 15 29 1006.9 1006.6 0.0
24/12:30pm 37.7 35.0 15.5 27 14.1 NW 24 43 13 23 1007.1 1006.8 0.0
24/12:01pm 38.1 34.7 15.8 26 14.2 NW 28 48 15 26 1007.5 1007.2 0.0
24/12:00pm 38.0 34.8 16.3 27 13.9 NW 28 41 15 22 1007.5 1007.2 0.0
24/11:33am 36.8 33.2 15.3 28 13.6 NW 28 46 15 25 1007.9 1007.6 0.0
24/11:30am 36.9 33.0 15.4 28 13.6 NW 30 46 16 25 1008.0 1007.7 0.0
24/11:16am 36.9 33.1 14.8 26 13.8 NW 28 46 15 25 1008.2 1007.9 0.0
24/11:00am 35.7 32.2 14.4 28 13.2 NW 26 41 14 22 1008.3 1008.0 0.0
24/10:30am 34.8 30.6 13.6 28 13.0 NW 28 46 15 25 1008.8 1008.5 0.0
24/10:17am 34.4 30.3 13.8 29 12.6 NW 28 50 15 27 1009.0 1008.7 0.0
24/10:00am 34.2 30.4 13.6 29 12.6 NNW 26 41 14 22 1009.2 1008.9 0.0
24/09:34am 33.9 29.7 13.4 29 12.4 NW 28 46 15 25 1009.2 1008.9 0.0
24/09:30am 33.9 29.4 13.9 30 12.2 NW 30 46 16 25 1009.2 1008.9 0.0
24/09:22am 32.4 28.1 13.1 31 11.6 NW 28 46 15 25 1009.1 1008.8 0.0
24/09:00am 32.3 28.8 13.5 32 11.4 NW 24 44 13 24 1009.2 1008.9 0.0
24/08:30am 32.1 27.1 13.3 31 11.3 NW 32 56 17 30 1008.9 1008.6 0.0
24/08:12am 31.1 26.5 13.4 34 10.6 NW 30 48 16 26 1008.7 1008.4 0.0
24/08:00am 30.3 26.5 13.6 36 10.0 NW 26 43 14 23 1008.8 1008.5 0.0
24/07:30am 29.7 27.0 14.7 40 9.1 NW 22 37 12 20 1008.7 1008.4 0.0
24/07:00am 27.8 28.5 16.1 49 7.2 NNW 7 13 4 7 1008.5 1008.2 0.0
24/06:30am 23.2 24.4 18.3 74 3.1 NNE 9 15 5 8 1008.2 1007.9 0.0
24/06:00am 20.1 22.5 17.9 87 1.4 E 2 7 1 4 1008.0 1007.7 0.0
24/05:30am 19.8 21.3 17.6 87 1.4 ESE 6 7 3 4 1007.9 1007.6 0.0
24/05:00am 20.1 22.8 17.7 86 1.5 CALM 0 0 0 0 1007.5 1007.2 0.0
24/04:30am 20.1 21.9 17.5 85 1.6 E 4 9 2 5 1007.6 1007.3 0.0
24/04:00am 19.9 22.2 17.7 87 1.4 SW 2 6 1 3 1007.9 1007.6 0.0
24/03:30am 19.7 22.1 17.1 85 1.6 CALM 0 0 0 0 1008.1 1007.8 0.0
24/03:00am 20.3 22.9 17.5 84 1.7 CALM 0 0 0 0 1008.2 1007.9 0.0
24/02:30am 20.2 22.7 17.2 83 1.8 CALM 0 4 0 2 1008.4 1008.1 0.0
24/02:00am 20.5 21.9 17.3 82 2.0 WSW 6 9 3 5 1008.6 1008.3 0.0
24/01:30am 21.5 23.0 17.5 78 2.5 SW 6 7 3 4 1008.6 1008.3 0.0
24/01:00am 21.8 23.1 17.6 77 2.6 WSW 7 11 4 6 1008.8 1008.5 0.0
24/12:30am 21.9 23.3 17.3 75 2.8 SW 6 7 3 4 1009.0 1008.7 0.0
24/12:00am 23.6 23.9 17.8 70 3.6 SW 13 15 7 8 1009.2 1008.9 0.0
 
Date/Time
EDT
Temp
°C
App
Temp
°C
Dew
Point
°C
Rel
Hum
%
Delta-T
°C
Wind Press
QNH
hPa
Press
MSL
hPa
Rain since
9am
mm
Dir  Spd
km/h
Gust
km/h
Spd
kts
Gust
kts
23/11:30pm 23.1 23.7 17.8 72 3.3 WSW 11 11 6 6 1009.3 1009.0 0.0
23/11:00pm 23.9 25.2 17.6 68 3.9 SW 7 9 4 5 1009.3 1009.0 0.0
23/10:30pm 25.4 26.3 17.6 62 4.9 SW 9 13 5 7 1009.4 1009.1 0.0
23/10:00pm 25.6 26.8 17.3 60 5.2 S 7 9 4 5 1009.5 1009.2 0.0
23/09:30pm 27.6 28.6 16.9 52 6.7 SSE 7 7 4 4 1009.3 1009.0 0.0
23/09:00pm 28.9 29.8 16.5 47 7.8 SE 7 11 4 6 1009.2 1008.9 0.0
23/08:30pm 30.9 31.6 15.7 39 9.4 - 6 13 3 7 1008.7 1008.4 0.0
23/08:00pm 32.2 30.3 15.2 35 10.6 E 19 28 10 15 1008.3 1008.0 0.0
23/07:30pm 33.6 31.5 15.1 33 11.5 ENE 20 32 11 17 1008.0 1007.7 0.0
23/07:00pm 34.5 32.7 15.9 33 11.8 E 20 28 11 15 1007.7 1007.4 0.0
23/06:30pm 35.5 33.2 15.8 31 12.5 ENE 22 28 12 15 1007.6 1007.3 0.0
23/06:00pm 35.9 34.0 15.1 29 13.1 ENE 19 30 10 16 1007.5 1007.2 0.0
23/05:30pm 36.5 35.7 15.0 27 13.5 NE 13 28 7 15 1007.7 1007.4 0.0
23/05:00pm 36.3 36.8 14.9 28 13.4 E 6 15 3 8 1008.1 1007.8 0.0
23/04:30pm 36.7 34.6 14.6 26 13.8 NE 19 26 10 14 1008.5 1008.2 0.0
23/04:00pm 35.8 34.6 13.9 27 13.5 N 13 20 7 11 1009.1 1008.8 0.0
23/03:30pm 35.5 35.5 15.3 30 12.7 NW 9 17 5 9 1009.5 1009.2 0.0
23/03:00pm 35.7 35.0 16.4 31 12.3 ENE 15 28 8 15 1009.7 1009.4 0.0
23/02:30pm 34.6 34.5 16.9 35 11.3 NNE 13 24 7 13 1010.3 1010.0 0.0
23/02:00pm 34.4 33.9 15.8 33 11.7 NNE 13 22 7 12 1010.7 1010.4 0.0
23/01:30pm 32.9 30.7 15.0 34 11.1 N 20 35 11 19 1011.3 1011.0 0.0
23/01:00pm 32.5 33.4 18.3 43 9.2 NNE 11 19 6 10 1011.8 1011.5 0.0
23/12:30pm 31.7 32.5 17.2 42 9.2 NW 9 20 5 11 1012.2 1011.9 0.0
23/12:00pm 30.6 31.3 18.0 47 8.1 N 11 20 6 11 1012.7 1012.4 0.0
23/11:30am 29.6 30.0 18.1 50 7.4 N 13 20 7 11 1013.2 1012.9 0.0
23/11:00am 28.7 29.8 18.8 55 6.4 NNW 11 20 6 11 1013.7 1013.4 0.0
23/10:30am 26.9 27.8 18.5 60 5.4 NE 11 17 6 9 1014.1 1013.8 0.0
23/10:00am 25.5 26.9 17.7 62 4.9 ENE 7 13 4 7 1014.4 1014.1 0.0
23/09:30am 24.6 26.1 17.6 65 4.4 E 6 11 3 6 1014.6 1014.3 0.0
23/09:00am 23.7 25.7 17.9 70 3.6 SE 4 11 2 6 1014.6 1014.3 0.0
23/08:30am 22.0 23.2 17.4 75 2.8 SSE 7 13 4 7 1014.5 1014.2 0.0
23/08:00am 21.2 23.5 17.6 80 2.2 WNW 2 7 1 4 1014.7 1014.4 0.0
23/07:30am 20.6 23.5 18.2 86 1.5 CALM 0 0 0 0 1014.3 1014.0 0.0
23/07:00am 17.7 18.9 16.9 95 0.5 WSW 6 7 3 4 1014.0 1013.7 0.0
23/06:30am 16.0 16.4 15.2 95 0.5 WSW 7 9 4 5 1013.7 1013.4 0.0
23/06:00am 15.7 16.5 14.7 94 0.6 SE 4 6 2 3 1013.3 1013.0 0.0
23/05:30am 16.3 16.9 15.3 94 0.6 SW 6 7 3 4 1013.2 1012.9 0.0
23/05:00am 16.5 16.9 15.4 93 0.6 SW 7 9 4 5 1013.1 1012.8 0.0
23/04:30am 16.9 18.3 15.4 91 0.9 SW 2 6 1 3 1012.9 1012.6 0.0
23/04:00am 17.3 18.0 15.5 89 1.1 SW 6 7 3 4 1012.9 1012.6 0.0
23/03:30am 18.2 18.9 16.0 87 1.3 SSW 7 9 4 5 1013.0 1012.7 0.0
23/03:00am 19.1 19.7 16.9 87 1.3 SSW 9 11 5 6 1013.3 1013.0 0.0
23/02:30am 19.1 19.1 17.2 89 1.2 SSW 13 17 7 9 1013.3 1013.0 0.0
23/02:00am 19.0 19.3 17.0 88 1.2 SSW 11 13 6 7 1013.4 1013.1 0.0
23/01:30am 19.2 19.9 17.0 87 1.3 S 9 13 5 7 1013.7 1013.4 0.0
23/01:00am 19.2 19.4 16.8 86 1.5 S 11 13 6 7 1014.0 1013.7 0.0
23/12:30am 20.0 20.6 16.8 82 1.9 SSW 9 11 5 6 1014.4 1014.1 0.0
23/12:00am 20.4 20.3 17.0 81 2.1 SSE 13 17 7 9 1014.5 1014.2 0.0
 
Date/Time
EDT
Temp
°C
App
Temp
°C
Dew
Point
°C
Rel
Hum
%
Delta-T
°C
Wind Press
QNH
hPa
Press
MSL
hPa
Rain since
9am
mm
Dir  Spd
km/h
Gust
km/h
Spd
kts
Gust
kts
22/11:30pm 20.6 20.6 17.2 81 2.1 SSE 13 17 7 9 1014.7 1014.4 0.0
22/11:00pm 20.6 20.6 17.2 81 2.1 S 13 15 7 8 1014.7 1014.4 0.0
22/10:30pm 20.8 20.7 17.0 79 2.3 S 13 17 7 9 1014.7 1014.4 0.0
22/10:00pm 21.2 21.2 17.2 78 2.5 SSE 13 15 7 8 1014.8 1014.5 0.0
22/09:30pm 21.6 21.5 17.0 75 2.8 S 13 20 7 11 1014.8 1014.5 0.0
22/09:00pm 22.0 22.3 16.9 73 3.1 SSE 11 15 6 8 1014.8 1014.5 0.0
22/08:30pm 23.0 22.5 17.0 69 3.7 SE 15 20 8 11 1014.9 1014.6 0.0
22/08:00pm 23.6 22.3 16.9 66 4.1 SE 19 24 10 13 1014.7 1014.4 0.0
22/07:30pm 24.4 23.5 16.9 63 4.6 SE 17 26 9 14 1014.4 1014.1 0.0
22/07:00pm 25.2 23.2 16.4 58 5.4 ESE 22 32 12 17 1013.9 1013.6 0.0
22/06:30pm 26.2 24.1 16.2 54 6.2 ESE 22 30 12 16 1013.7 1013.4 0.0
22/06:00pm 26.8 24.4 15.5 50 6.9 ESE 22 32 12 17 1013.5 1013.2 0.0
22/05:30pm 27.5 25.0 15.2 47 7.5 E 22 32 12 17 1013.4 1013.1 0.0
22/05:00pm 28.0 25.3 15.6 46 7.6 ESE 24 30 13 16 1013.6 1013.3 0.0
22/04:30pm 29.3 26.9 15.4 42 8.5 E 22 32 12 17 1013.6 1013.3 0.0
22/04:00pm 29.0 26.8 14.4 41 8.8 E 19 30 10 16 1013.8 1013.5 0.0
22/03:30pm 29.2 27.0 15.0 42 8.7 ESE 20 32 11 17 1014.0 1013.7 0.0
22/03:00pm 29.3 28.6 15.4 42 8.5 E 13 24 7 13 1014.3 1014.0 0.0
22/02:30pm 28.8 26.5 14.6 42 8.6 ESE 20 30 11 16 1014.5 1014.2 0.0
22/02:00pm 29.5 27.5 14.9 41 8.9 E 19 24 10 13 1014.9 1014.6 0.0
22/01:30pm 27.9 26.5 13.4 40 8.6 E 13 24 7 13 1015.1 1014.8 0.0
22/01:00pm 28.3 26.5 14.5 43 8.3 NE 17 30 9 16 1015.5 1015.2 0.0
22/12:30pm 27.8 26.4 14.4 43 8.1 ENE 15 28 8 15 1016.0 1015.7 0.0
22/12:00pm 27.5 26.0 14.2 44 8.0 ENE 15 26 8 14 1016.4 1016.1 0.0
22/11:30am 25.7 23.5 13.2 46 7.3 ENE 17 22 9 12 1016.6 1016.3 0.0
22/11:00am 26.2 23.8 13.7 46 7.4 NE 19 28 10 15 1016.8 1016.5 0.0
22/10:30am 25.2 24.8 14.0 49 6.6 ENE 9 17 5 9 1016.8 1016.5 0.0
22/10:00am 25.1 24.6 13.9 49 6.6 E 9 17 5 9 1017.0 1016.7 0.0
22/09:30am 24.7 23.7 14.5 53 6.1 ESE 13 20 7 11 1017.1 1016.8 0.0
22/09:00am 23.8 23.2 15.6 60 4.9 E 13 20 7 11 1017.1 1016.8 0.0
22/08:30am 23.1 22.9 15.7 63 4.5 ESE 11 15 6 8 1017.1 1016.8 0.0
22/08:00am 21.6 21.6 16.3 72 3.2 S 11 17 6 9 1017.2 1016.9 0.0
22/07:30am 20.4 19.9 16.0 76 2.6 S 13 19 7 10 1017.1 1016.8 0.0
22/07:00am 19.4 19.3 15.9 80 2.1 SSW 11 15 6 8 1016.8 1016.5 0.0
22/06:30am 18.0 18.0 15.3 84 1.6 S 9 13 5 7 1016.4 1016.1 0.0
22/06:00am 18.0 17.5 14.9 82 1.8 S 11 15 6 8 1016.1 1015.8 0.0
22/05:30am 18.3 18.1 14.8 80 2.0 S 9 11 5 6 1015.9 1015.6 0.0
22/05:00am 19.0 19.1 15.5 80 2.1 S 9 11 5 6 1015.6 1015.3 0.0
22/04:30am 18.9 19.0 15.4 80 2.1 S 9 11 5 6 1015.5 1015.2 0.0
22/04:00am 18.8 19.4 15.7 82 1.8 SSW 7 11 4 6 1015.4 1015.1 0.0
22/03:30am 18.1 18.8 16.1 88 1.2 S 7 9 4 5 1015.5 1015.2 0.0
22/03:00am 17.0 18.8 15.5 91 0.9 CALM 0 0 0 0 1015.7 1015.4 0.0
22/02:30am 17.2 19.0 15.4 89 1.1 CALM 0 0 0 0 1015.8 1015.5 0.0
22/02:00am 17.9 19.4 15.7 87 1.3 ENE 2 6 1 3 1016.1 1015.8 0.0
22/01:30am 17.2 19.0 15.5 90 1.0 CALM 0 0 0 0 1016.3 1016.0 0.0
22/01:00am 16.8 18.4 15.0 89 1.0 CALM 0 0 0 0 1016.3 1016.0 0.0
22/12:30am 17.2 18.8 15.0 87 1.3 CALM 0 0 0 0 1016.3 1016.0 0.0
22/12:00am 17.8 18.1 15.1 84 1.6 S 7 7 4 4 1016.2 1015.9 0.0
 
Date/Time
EDT
Temp
°C
App
Temp
°C
Dew
Point
°C
Rel
Hum
%
Delta-T
°C
Wind Press
QNH
hPa
Press
MSL
hPa
Rain since
9am
mm
Dir  Spd
km/h
Gust
km/h
Spd
kts
Gust
kts
21/11:30pm 17.9 18.2 15.0 83 1.7 S 7 9 4 5 1016.3 1016.0 0.0
21/11:00pm 18.0 17.8 14.7 81 1.9 S 9 11 5 6 1016.1 1015.8 0.0
21/10:30pm 18.6 18.1 14.9 79 2.2 S 11 13 6 7 1016.1 1015.8 0.0

Other Formats:

Comma delimited format used in spreadsheet applications
http://www.bom.gov.au/fwo/IDN60801/IDN60801.95771.axf

JavaScript Object Notation format (JSON) in row-major order
http://www.bom.gov.au/fwo/IDN60801/IDN60801.95771.json